sensor_id;sensor_type;location;lat;lon;timestamp;temperature;humidity
33699;DHT22;20032;52.436;13.312;2023-11-21T00:02:35;9.10;99.90
33699;DHT22;20032;52.436;13.312;2023-11-21T00:05:02;9.10;99.90
33699;DHT22;20032;52.436;13.312;2023-11-21T00:07:28;9.10;99.90
33699;DHT22;20032;52.436;13.312;2023-11-21T00:09:54;9.10;99.90
33699;DHT22;20032;52.436;13.312;2023-11-21T00:12:21;9.10;99.90
33699;DHT22;20032;52.436;13.312;2023-11-21T00:14:46;9.20;99.90
33699;DHT22;20032;52.436;13.312;2023-11-21T00:17:12;9.10;99.90
33699;DHT22;20032;52.436;13.312;2023-11-21T00:19:37;9.10;99.90
33699;DHT22;20032;52.436;13.312;2023-11-21T00:22:03;9.00;99.90
33699;DHT22;20032;52.436;13.312;2023-11-21T00:24:28;9.00;99.90
33699;DHT22;20032;52.436;13.312;2023-11-21T00:26:54;9.00;99.90
33699;DHT22;20032;52.436;13.312;2023-11-21T00:29:19;8.90;99.90
33699;DHT22;20032;52.436;13.312;2023-11-21T00:31:45;8.80;99.90
33699;DHT22;20032;52.436;13.312;2023-11-21T00:34:12;8.70;99.90
33699;DHT22;20032;52.436;13.312;2023-11-21T00:36:38;8.60;99.90
33699;DHT22;20032;52.436;13.312;2023-11-21T00:39:03;8.60;99.90
33699;DHT22;20032;52.436;13.312;2023-11-21T00:41:31;8.60;99.90
33699;DHT22;20032;52.436;13.312;2023-11-21T00:43:57;8.60;99.90
33699;DHT22;20032;52.436;13.312;2023-11-21T00:46:22;8.40;99.90
33699;DHT22;20032;52.436;13.312;2023-11-21T00:48:49;8.40;99.90
33699;DHT22;20032;52.436;13.312;2023-11-21T00:51:14;8.40;99.90
33699;DHT22;20032;52.436;13.312;2023-11-21T00:53:40;8.40;99.90
33699;DHT22;20032;52.436;13.312;2023-11-21T00:56:06;8.30;99.90
33699;DHT22;20032;52.436;13.312;2023-11-21T00:58:32;8.30;99.90
33699;DHT22;20032;52.436;13.312;2023-11-21T01:00:57;8.30;99.90
33699;DHT22;20032;52.436;13.312;2023-11-21T01:03:23;8.30;99.90
33699;DHT22;20032;52.436;13.312;2023-11-21T01:05:49;8.20;99.90
33699;DHT22;20032;52.436;13.312;2023-11-21T01:08:15;8.20;99.90
33699;DHT22;20032;52.436;13.312;2023-11-21T01:10:41;8.10;99.90
33699;DHT22;20032;52.436;13.312;2023-11-21T01:13:06;8.10;99.90
33699;DHT22;20032;52.436;13.312;2023-11-21T01:15:33;8.00;99.90
33699;DHT22;20032;52.436;13.312;2023-11-21T01:17:58;8.00;99.90
33699;DHT22;20032;52.436;13.312;2023-11-21T01:20:24;8.00;99.90
33699;DHT22;20032;52.436;13.312;2023-11-21T01:22:49;7.90;99.90
33699;DHT22;20032;52.436;13.312;2023-11-21T01:25:15;7.90;99.90
33699;DHT22;20032;52.436;13.312;2023-11-21T01:27:42;7.80;99.90
33699;DHT22;20032;52.436;13.312;2023-11-21T01:30:08;7.80;99.90
33699;DHT22;20032;52.436;13.312;2023-11-21T01:32:36;7.80;99.90
33699;DHT22;20032;52.436;13.312;2023-11-21T01:35:02;7.70;99.90
33699;DHT22;20032;52.436;13.312;2023-11-21T01:37:27;7.70;99.90
33699;DHT22;20032;52.436;13.312;2023-11-21T01:39:54;7.70;99.90
33699;DHT22;20032;52.436;13.312;2023-11-21T01:42:20;7.70;99.90
33699;DHT22;20032;52.436;13.312;2023-11-21T01:44:46;7.60;99.90
33699;DHT22;20032;52.436;13.312;2023-11-21T01:47:12;7.70;99.90
33699;DHT22;20032;52.436;13.312;2023-11-21T01:49:38;7.70;99.90
33699;DHT22;20032;52.436;13.312;2023-11-21T01:52:04;7.70;99.90
33699;DHT22;20032;52.436;13.312;2023-11-21T01:54:30;7.60;99.90
33699;DHT22;20032;52.436;13.312;2023-11-21T01:56:58;7.70;99.90
33699;DHT22;20032;52.436;13.312;2023-11-21T01:59:30;7.60;99.90
33699;DHT22;20032;52.436;13.312;2023-11-21T02:01:57;7.50;99.90
33699;DHT22;20032;52.436;13.312;2023-11-21T02:04:23;7.50;99.90
33699;DHT22;20032;52.436;13.312;2023-11-21T02:06:48;7.40;99.90
33699;DHT22;20032;52.436;13.312;2023-11-21T02:09:16;7.40;99.90
33699;DHT22;20032;52.436;13.312;2023-11-21T02:11:43;7.40;99.90
33699;DHT22;20032;52.436;13.312;2023-11-21T02:14:09;7.40;99.90
33699;DHT22;20032;52.436;13.312;2023-11-21T02:16:35;7.40;99.90
33699;DHT22;20032;52.436;13.312;2023-11-21T02:19:02;7.40;99.90
33699;DHT22;20032;52.436;13.312;2023-11-21T02:21:29;7.30;99.90
33699;DHT22;20032;52.436;13.312;2023-11-21T02:23:55;7.30;99.90
33699;DHT22;20032;52.436;13.312;2023-11-21T02:26:21;7.30;99.90
33699;DHT22;20032;52.436;13.312;2023-11-21T02:28:46;7.30;99.90
33699;DHT22;20032;52.436;13.312;2023-11-21T02:31:12;7.40;99.90
33699;DHT22;20032;52.436;13.312;2023-11-21T02:33:37;7.30;99.90
33699;DHT22;20032;52.436;13.312;2023-11-21T02:36:03;7.20;99.90
33699;DHT22;20032;52.436;13.312;2023-11-21T02:38:29;7.20;99.90
33699;DHT22;20032;52.436;13.312;2023-11-21T02:40:55;7.20;99.90
33699;DHT22;20032;52.436;13.312;2023-11-21T02:43:20;7.20;99.90
33699;DHT22;20032;52.436;13.312;2023-11-21T02:45:46;7.20;99.90
33699;DHT22;20032;52.436;13.312;2023-11-21T02:48:11;7.20;99.90
33699;DHT22;20032;52.436;13.312;2023-11-21T02:50:37;7.20;99.90
33699;DHT22;20032;52.436;13.312;2023-11-21T02:53:03;7.20;99.90
33699;DHT22;20032;52.436;13.312;2023-11-21T02:55:31;7.20;99.90
33699;DHT22;20032;52.436;13.312;2023-11-21T02:57:59;7.10;99.90
33699;DHT22;20032;52.436;13.312;2023-11-21T03:00:25;7.10;99.90
33699;DHT22;20032;52.436;13.312;2023-11-21T03:02:51;7.00;99.90
33699;DHT22;20032;52.436;13.312;2023-11-21T03:05:16;7.10;99.90
33699;DHT22;20032;52.436;13.312;2023-11-21T03:07:41;7.20;99.90
33699;DHT22;20032;52.436;13.312;2023-11-21T03:10:08;7.10;99.90
33699;DHT22;20032;52.436;13.312;2023-11-21T03:12:34;7.00;99.90
33699;DHT22;20032;52.436;13.312;2023-11-21T03:15:00;7.00;99.90
33699;DHT22;20032;52.436;13.312;2023-11-21T03:17:27;7.10;99.90
33699;DHT22;20032;52.436;13.312;2023-11-21T03:19:54;7.00;99.90
33699;DHT22;20032;52.436;13.312;2023-11-21T03:22:19;7.00;99.90
33699;DHT22;20032;52.436;13.312;2023-11-21T03:24:45;7.00;99.90
33699;DHT22;20032;52.436;13.312;2023-11-21T03:27:11;6.90;99.90
33699;DHT22;20032;52.436;13.312;2023-11-21T03:29:37;6.90;99.90
33699;DHT22;20032;52.436;13.312;2023-11-21T03:32:03;6.90;99.90
33699;DHT22;20032;52.436;13.312;2023-11-21T03:34:28;6.90;99.90
33699;DHT22;20032;52.436;13.312;2023-11-21T03:36:54;6.90;99.90
33699;DHT22;20032;52.436;13.312;2023-11-21T03:39:20;6.90;99.90
33699;DHT22;20032;52.436;13.312;2023-11-21T03:41:46;6.80;99.90
33699;DHT22;20032;52.436;13.312;2023-11-21T03:44:12;6.80;99.90
33699;DHT22;20032;52.436;13.312;2023-11-21T03:46:37;6.90;99.90
33699;DHT22;20032;52.436;13.312;2023-11-21T03:49:03;6.90;99.90
33699;DHT22;20032;52.436;13.312;2023-11-21T03:51:28;7.00;99.90
33699;DHT22;20032;52.436;13.312;2023-11-21T03:53:54;6.90;99.90
33699;DHT22;20032;52.436;13.312;2023-11-21T03:56:19;6.90;99.90
33699;DHT22;20032;52.436;13.312;2023-11-21T03:58:47;6.90;99.90
33699;DHT22;20032;52.436;13.312;2023-11-21T04:01:20;6.90;99.90
33699;DHT22;20032;52.436;13.312;2023-11-21T04:03:47;6.90;99.90
33699;DHT22;20032;52.436;13.312;2023-11-21T04:06:12;6.90;99.90
33699;DHT22;20032;52.436;13.312;2023-11-21T04:08:38;6.90;99.90
33699;DHT22;20032;52.436;13.312;2023-11-21T04:11:03;6.90;99.90
33699;DHT22;20032;52.436;13.312;2023-11-21T04:13:29;6.90;99.90
33699;DHT22;20032;52.436;13.312;2023-11-21T04:15:56;6.90;99.90
33699;DHT22;20032;52.436;13.312;2023-11-21T04:18:21;6.80;99.90
33699;DHT22;20032;52.436;13.312;2023-11-21T04:20:48;6.70;99.90
33699;DHT22;20032;52.436;13.312;2023-11-21T04:23:14;6.70;99.90
33699;DHT22;20032;52.436;13.312;2023-11-21T04:25:40;6.70;99.90
33699;DHT22;20032;52.436;13.312;2023-11-21T04:28:06;6.70;99.90
33699;DHT22;20032;52.436;13.312;2023-11-21T04:30:31;6.70;99.90
33699;DHT22;20032;52.436;13.312;2023-11-21T04:32:58;6.70;99.90
33699;DHT22;20032;52.436;13.312;2023-11-21T04:35:23;6.60;99.90
33699;DHT22;20032;52.436;13.312;2023-11-21T04:37:49;6.60;99.90
33699;DHT22;20032;52.436;13.312;2023-11-21T04:40:16;6.60;99.90
33699;DHT22;20032;52.436;13.312;2023-11-21T04:42:42;6.60;99.90
33699;DHT22;20032;52.436;13.312;2023-11-21T04:45:08;6.60;99.90
33699;DHT22;20032;52.436;13.312;2023-11-21T04:47:34;6.60;99.90
33699;DHT22;20032;52.436;13.312;2023-11-21T04:50:00;6.70;99.90
33699;DHT22;20032;52.436;13.312;2023-11-21T04:52:25;6.60;99.90
33699;DHT22;20032;52.436;13.312;2023-11-21T04:54:51;6.70;99.90
33699;DHT22;20032;52.436;13.312;2023-11-21T04:57:16;6.60;99.90
33699;DHT22;20032;52.436;13.312;2023-11-21T04:59:44;6.60;99.90
33699;DHT22;20032;52.436;13.312;2023-11-21T05:02:09;6.60;99.90
33699;DHT22;20032;52.436;13.312;2023-11-21T05:04:35;6.60;99.90
33699;DHT22;20032;52.436;13.312;2023-11-21T05:07:00;6.60;99.90
33699;DHT22;20032;52.436;13.312;2023-11-21T05:09:26;6.60;99.90
33699;DHT22;20032;52.436;13.312;2023-11-21T05:11:54;6.50;99.90
33699;DHT22;20032;52.436;13.312;2023-11-21T05:14:19;6.50;99.90
33699;DHT22;20032;52.436;13.312;2023-11-21T05:16:45;6.60;99.90
33699;DHT22;20032;52.436;13.312;2023-11-21T05:19:11;6.60;99.90
33699;DHT22;20032;52.436;13.312;2023-11-21T05:21:38;6.60;99.90
33699;DHT22;20032;52.436;13.312;2023-11-21T05:24:04;6.50;99.90
33699;DHT22;20032;52.436;13.312;2023-11-21T05:26:30;6.50;99.90
33699;DHT22;20032;52.436;13.312;2023-11-21T05:28:56;6.50;99.90
33699;DHT22;20032;52.436;13.312;2023-11-21T05:31:21;6.50;99.90
33699;DHT22;20032;52.436;13.312;2023-11-21T05:33:47;6.50;99.90
33699;DHT22;20032;52.436;13.312;2023-11-21T05:36:12;6.50;99.90
33699;DHT22;20032;52.436;13.312;2023-11-21T05:38:38;6.50;99.90
33699;DHT22;20032;52.436;13.312;2023-11-21T05:41:04;6.50;99.90
33699;DHT22;20032;52.436;13.312;2023-11-21T05:43:30;6.50;99.90
33699;DHT22;20032;52.436;13.312;2023-11-21T05:45:56;6.60;99.90
33699;DHT22;20032;52.436;13.312;2023-11-21T05:48:22;6.60;99.90
33699;DHT22;20032;52.436;13.312;2023-11-21T05:50:48;6.50;99.90
33699;DHT22;20032;52.436;13.312;2023-11-21T05:53:15;6.50;99.90
33699;DHT22;20032;52.436;13.312;2023-11-21T05:55:41;6.50;99.90
33699;DHT22;20032;52.436;13.312;2023-11-21T05:58:06;6.50;99.90
33699;DHT22;20032;52.436;13.312;2023-11-21T06:00:33;6.50;99.90
33699;DHT22;20032;52.436;13.312;2023-11-21T06:02:58;6.50;99.90
33699;DHT22;20032;52.436;13.312;2023-11-21T06:05:25;6.60;99.90
33699;DHT22;20032;52.436;13.312;2023-11-21T06:07:53;6.50;99.90
33699;DHT22;20032;52.436;13.312;2023-11-21T06:10:21;6.60;99.90
33699;DHT22;20032;52.436;13.312;2023-11-21T06:12:47;6.60;99.90
33699;DHT22;20032;52.436;13.312;2023-11-21T06:15:13;6.50;99.90
33699;DHT22;20032;52.436;13.312;2023-11-21T06:17:41;6.50;99.90
33699;DHT22;20032;52.436;13.312;2023-11-21T06:20:09;6.40;99.90
33699;DHT22;20032;52.436;13.312;2023-11-21T06:22:38;6.40;99.90
33699;DHT22;20032;52.436;13.312;2023-11-21T06:25:04;6.50;99.90
33699;DHT22;20032;52.436;13.312;2023-11-21T06:27:32;6.40;99.90
33699;DHT22;20032;52.436;13.312;2023-11-21T06:29:59;6.30;99.90
33699;DHT22;20032;52.436;13.312;2023-11-21T06:32:25;6.30;99.90
33699;DHT22;20032;52.436;13.312;2023-11-21T06:34:51;6.30;99.90
33699;DHT22;20032;52.436;13.312;2023-11-21T06:37:19;6.30;99.90
33699;DHT22;20032;52.436;13.312;2023-11-21T06:39:46;6.40;99.90
33699;DHT22;20032;52.436;13.312;2023-11-21T06:42:11;6.40;99.90
33699;DHT22;20032;52.436;13.312;2023-11-21T06:44:37;6.50;99.90
33699;DHT22;20032;52.436;13.312;2023-11-21T06:47:03;6.50;99.90
33699;DHT22;20032;52.436;13.312;2023-11-21T06:49:28;6.40;99.90
33699;DHT22;20032;52.436;13.312;2023-11-21T06:51:54;6.30;99.90
33699;DHT22;20032;52.436;13.312;2023-11-21T06:54:20;6.30;99.90
33699;DHT22;20032;52.436;13.312;2023-11-21T06:56:46;6.30;99.90
33699;DHT22;20032;52.436;13.312;2023-11-21T06:59:12;6.30;99.90
33699;DHT22;20032;52.436;13.312;2023-11-21T07:01:38;6.20;99.90
33699;DHT22;20032;52.436;13.312;2023-11-21T07:04:06;6.30;99.90
33699;DHT22;20032;52.436;13.312;2023-11-21T07:06:32;6.30;99.90
33699;DHT22;20032;52.436;13.312;2023-11-21T07:08:58;6.30;99.90
33699;DHT22;20032;52.436;13.312;2023-11-21T07:11:24;6.30;99.90
33699;DHT22;20032;52.436;13.312;2023-11-21T07:13:50;6.40;99.90
33699;DHT22;20032;52.436;13.312;2023-11-21T07:16:16;6.40;99.90
33699;DHT22;20032;52.436;13.312;2023-11-21T07:18:41;6.30;99.90
33699;DHT22;20032;52.436;13.312;2023-11-21T07:21:07;6.30;99.90
33699;DHT22;20032;52.436;13.312;2023-11-21T07:23:34;6.30;99.90
33699;DHT22;20032;52.436;13.312;2023-11-21T07:25:59;6.40;99.90
33699;DHT22;20032;52.436;13.312;2023-11-21T07:28:25;6.30;99.90
33699;DHT22;20032;52.436;13.312;2023-11-21T07:30:51;6.30;99.90
33699;DHT22;20032;52.436;13.312;2023-11-21T07:33:17;6.20;99.90
33699;DHT22;20032;52.436;13.312;2023-11-21T07:35:43;6.20;99.90
33699;DHT22;20032;52.436;13.312;2023-11-21T07:38:08;6.20;99.90
33699;DHT22;20032;52.436;13.312;2023-11-21T07:40:34;6.30;99.90
33699;DHT22;20032;52.436;13.312;2023-11-21T07:42:59;6.40;99.90
33699;DHT22;20032;52.436;13.312;2023-11-21T07:45:26;6.30;99.90
33699;DHT22;20032;52.436;13.312;2023-11-21T07:47:53;6.30;99.90
33699;DHT22;20032;52.436;13.312;2023-11-21T07:50:19;6.30;99.90
33699;DHT22;20032;52.436;13.312;2023-11-21T07:52:46;6.30;99.90
33699;DHT22;20032;52.436;13.312;2023-11-21T07:55:11;6.30;99.90
33699;DHT22;20032;52.436;13.312;2023-11-21T07:57:37;6.20;99.90
33699;DHT22;20032;52.436;13.312;2023-11-21T08:00:04;6.20;99.90
33699;DHT22;20032;52.436;13.312;2023-11-21T08:02:31;6.20;99.90
33699;DHT22;20032;52.436;13.312;2023-11-21T08:04:57;6.20;99.90
33699;DHT22;20032;52.436;13.312;2023-11-21T08:07:22;6.20;99.90
33699;DHT22;20032;52.436;13.312;2023-11-21T08:09:48;6.10;99.90
33699;DHT22;20032;52.436;13.312;2023-11-21T08:12:15;6.10;99.90
33699;DHT22;20032;52.436;13.312;2023-11-21T08:14:40;6.10;99.90
33699;DHT22;20032;52.436;13.312;2023-11-21T08:17:06;6.10;99.90
33699;DHT22;20032;52.436;13.312;2023-11-21T08:19:31;6.10;99.90
33699;DHT22;20032;52.436;13.312;2023-11-21T08:21:58;6.10;99.90
33699;DHT22;20032;52.436;13.312;2023-11-21T08:24:24;6.10;99.90
33699;DHT22;20032;52.436;13.312;2023-11-21T08:26:50;6.10;99.90
33699;DHT22;20032;52.436;13.312;2023-11-21T08:29:17;6.10;99.90
33699;DHT22;20032;52.436;13.312;2023-11-21T08:31:43;6.10;99.90
33699;DHT22;20032;52.436;13.312;2023-11-21T08:34:12;6.20;99.90
33699;DHT22;20032;52.436;13.312;2023-11-21T08:36:42;6.10;99.90
33699;DHT22;20032;52.436;13.312;2023-11-21T08:39:08;6.10;99.90
33699;DHT22;20032;52.436;13.312;2023-11-21T08:41:34;6.10;99.90
33699;DHT22;20032;52.436;13.312;2023-11-21T08:44:01;6.10;99.90
33699;DHT22;20032;52.436;13.312;2023-11-21T08:46:26;6.10;99.90
33699;DHT22;20032;52.436;13.312;2023-11-21T08:48:52;6.00;99.90
33699;DHT22;20032;52.436;13.312;2023-11-21T08:51:18;6.00;99.90
33699;DHT22;20032;52.436;13.312;2023-11-21T08:53:43;5.90;99.90
33699;DHT22;20032;52.436;13.312;2023-11-21T08:56:13;6.00;99.90
33699;DHT22;20032;52.436;13.312;2023-11-21T08:58:40;6.00;99.90
33699;DHT22;20032;52.436;13.312;2023-11-21T09:01:06;6.10;99.90
33699;DHT22;20032;52.436;13.312;2023-11-21T09:03:32;6.10;99.90
33699;DHT22;20032;52.436;13.312;2023-11-21T09:06:00;6.00;99.90
33699;DHT22;20032;52.436;13.312;2023-11-21T09:08:26;6.00;99.90
33699;DHT22;20032;52.436;13.312;2023-11-21T09:10:54;6.10;99.90
33699;DHT22;20032;52.436;13.312;2023-11-21T09:13:20;6.00;99.90
33699;DHT22;20032;52.436;13.312;2023-11-21T09:15:45;6.10;99.90
33699;DHT22;20032;52.436;13.312;2023-11-21T09:18:13;6.10;99.90
33699;DHT22;20032;52.436;13.312;2023-11-21T09:20:39;6.10;99.90
33699;DHT22;20032;52.436;13.312;2023-11-21T09:23:04;6.10;99.90
33699;DHT22;20032;52.436;13.312;2023-11-21T09:25:30;6.10;99.90
33699;DHT22;20032;52.436;13.312;2023-11-21T09:27:55;6.10;99.90
33699;DHT22;20032;52.436;13.312;2023-11-21T09:30:22;6.20;99.90
33699;DHT22;20032;52.436;13.312;2023-11-21T09:32:50;6.20;99.90
33699;DHT22;20032;52.436;13.312;2023-11-21T09:35:15;6.20;99.90
33699;DHT22;20032;52.436;13.312;2023-11-21T09:37:43;6.10;99.90
33699;DHT22;20032;52.436;13.312;2023-11-21T09:40:10;6.10;99.90
33699;DHT22;20032;52.436;13.312;2023-11-21T09:42:40;6.00;99.90
33699;DHT22;20032;52.436;13.312;2023-11-21T09:45:26;6.10;99.90
33699;DHT22;20032;52.436;13.312;2023-11-21T09:47:56;6.10;99.90
33699;DHT22;20032;52.436;13.312;2023-11-21T09:50:22;6.20;99.90
33699;DHT22;20032;52.436;13.312;2023-11-21T09:52:58;6.20;99.90
33699;DHT22;20032;52.436;13.312;2023-11-21T09:55:28;6.20;99.90
33699;DHT22;20032;52.436;13.312;2023-11-21T09:57:56;6.20;99.90
33699;DHT22;20032;52.436;13.312;2023-11-21T10:00:22;6.20;99.90
33699;DHT22;20032;52.436;13.312;2023-11-21T10:02:49;6.20;99.90
33699;DHT22;20032;52.436;13.312;2023-11-21T10:05:15;6.20;99.90
33699;DHT22;20032;52.436;13.312;2023-11-21T10:07:43;6.30;99.90
33699;DHT22;20032;52.436;13.312;2023-11-21T10:10:10;6.30;99.90
33699;DHT22;20032;52.436;13.312;2023-11-21T10:12:36;6.10;99.90
33699;DHT22;20032;52.436;13.312;2023-11-21T10:15:03;6.00;99.90
33699;DHT22;20032;52.436;13.312;2023-11-21T10:17:32;6.00;99.90
33699;DHT22;20032;52.436;13.312;2023-11-21T10:20:05;6.00;99.90
33699;DHT22;20032;52.436;13.312;2023-11-21T10:22:38;5.90;99.90
33699;DHT22;20032;52.436;13.312;2023-11-21T10:25:06;5.90;99.90
33699;DHT22;20032;52.436;13.312;2023-11-21T10:27:34;5.90;99.90
33699;DHT22;20032;52.436;13.312;2023-11-21T10:30:02;5.90;99.90
33699;DHT22;20032;52.436;13.312;2023-11-21T10:32:28;5.90;99.90
33699;DHT22;20032;52.436;13.312;2023-11-21T10:34:57;6.00;99.90
33699;DHT22;20032;52.436;13.312;2023-11-21T10:37:23;6.10;99.90
33699;DHT22;20032;52.436;13.312;2023-11-21T10:39:49;6.10;99.90
33699;DHT22;20032;52.436;13.312;2023-11-21T10:42:18;6.00;99.90
33699;DHT22;20032;52.436;13.312;2023-11-21T10:44:46;6.00;99.90
33699;DHT22;20032;52.436;13.312;2023-11-21T10:47:11;5.90;99.90
33699;DHT22;20032;52.436;13.312;2023-11-21T10:49:37;5.90;99.90
33699;DHT22;20032;52.436;13.312;2023-11-21T10:52:03;5.80;99.90
33699;DHT22;20032;52.436;13.312;2023-11-21T10:54:29;5.80;99.90
33699;DHT22;20032;52.436;13.312;2023-11-21T10:56:57;5.80;99.90
33699;DHT22;20032;52.436;13.312;2023-11-21T10:59:28;5.70;99.90
33699;DHT22;20032;52.436;13.312;2023-11-21T11:01:54;5.80;99.90
33699;DHT22;20032;52.436;13.312;2023-11-21T11:04:22;5.80;99.90
33699;DHT22;20032;52.436;13.312;2023-11-21T11:06:55;5.80;99.90
33699;DHT22;20032;52.436;13.312;2023-11-21T11:09:22;5.70;99.90
33699;DHT22;20032;52.436;13.312;2023-11-21T11:11:48;5.80;99.90
33699;DHT22;20032;52.436;13.312;2023-11-21T11:14:14;5.80;99.90
33699;DHT22;20032;52.436;13.312;2023-11-21T11:16:41;5.80;99.90
33699;DHT22;20032;52.436;13.312;2023-11-21T11:19:08;5.70;99.90
33699;DHT22;20032;52.436;13.312;2023-11-21T11:24:31;5.70;99.90
33699;DHT22;20032;52.436;13.312;2023-11-21T11:27:11;5.70;99.90
33699;DHT22;20032;52.436;13.312;2023-11-21T11:29:59;5.70;99.90
33699;DHT22;20032;52.436;13.312;2023-11-21T11:32:51;5.70;99.90
33699;DHT22;20032;52.436;13.312;2023-11-21T11:35:44;5.50;99.90
33699;DHT22;20032;52.436;13.312;2023-11-21T11:38:12;5.60;99.90
33699;DHT22;20032;52.436;13.312;2023-11-21T11:40:41;5.50;99.90
33699;DHT22;20032;52.436;13.312;2023-11-21T11:43:07;5.50;99.90
33699;DHT22;20032;52.436;13.312;2023-11-21T11:45:34;5.50;99.90
33699;DHT22;20032;52.436;13.312;2023-11-21T11:48:01;5.50;99.90
33699;DHT22;20032;52.436;13.312;2023-11-21T11:50:29;5.40;99.90
33699;DHT22;20032;52.436;13.312;2023-11-21T11:52:54;5.50;99.90
33699;DHT22;20032;52.436;13.312;2023-11-21T11:55:24;5.50;99.90
33699;DHT22;20032;52.436;13.312;2023-11-21T11:57:53;5.50;99.90
33699;DHT22;20032;52.436;13.312;2023-11-21T12:02:57;5.60;99.90
33699;DHT22;20032;52.436;13.312;2023-11-21T12:05:25;5.60;99.90
33699;DHT22;20032;52.436;13.312;2023-11-21T12:07:55;5.60;99.90
33699;DHT22;20032;52.436;13.312;2023-11-21T12:10:25;5.50;99.90
33699;DHT22;20032;52.436;13.312;2023-11-21T12:12:57;5.50;99.90
33699;DHT22;20032;52.436;13.312;2023-11-21T12:15:23;5.40;99.90
33699;DHT22;20032;52.436;13.312;2023-11-21T12:17:49;5.40;99.90
33699;DHT22;20032;52.436;13.312;2023-11-21T12:20:18;5.40;99.90
33699;DHT22;20032;52.436;13.312;2023-11-21T12:22:45;5.40;99.90
33699;DHT22;20032;52.436;13.312;2023-11-21T12:25:14;5.40;99.90
33699;DHT22;20032;52.436;13.312;2023-11-21T12:27:42;5.40;99.90
33699;DHT22;20032;52.436;13.312;2023-11-21T12:30:09;5.40;99.90
33699;DHT22;20032;52.436;13.312;2023-11-21T12:32:39;5.40;99.90
33699;DHT22;20032;52.436;13.312;2023-11-21T12:35:05;5.30;99.90
33699;DHT22;20032;52.436;13.312;2023-11-21T12:37:32;5.30;99.90
33699;DHT22;20032;52.436;13.312;2023-11-21T12:39:57;5.50;99.90
33699;DHT22;20032;52.436;13.312;2023-11-21T12:42:23;5.50;99.90
33699;DHT22;20032;52.436;13.312;2023-11-21T12:45:09;5.40;99.90
33699;DHT22;20032;52.436;13.312;2023-11-21T12:47:44;5.50;99.90
33699;DHT22;20032;52.436;13.312;2023-11-21T12:50:10;5.50;99.90
33699;DHT22;20032;52.436;13.312;2023-11-21T12:52:47;5.40;99.90
33699;DHT22;20032;52.436;13.312;2023-11-21T12:55:15;5.30;99.90
33699;DHT22;20032;52.436;13.312;2023-11-21T12:57:42;5.30;99.90
33699;DHT22;20032;52.436;13.312;2023-11-21T13:02:36;5.30;99.90
33699;DHT22;20032;52.436;13.312;2023-11-21T13:05:04;5.40;99.90
33699;DHT22;20032;52.436;13.312;2023-11-21T13:07:41;5.30;99.90
33699;DHT22;20032;52.436;13.312;2023-11-21T13:10:12;5.40;99.90
33699;DHT22;20032;52.436;13.312;2023-11-21T13:12:43;5.40;99.90
33699;DHT22;20032;52.436;13.312;2023-11-21T13:15:10;5.40;99.90
33699;DHT22;20032;52.436;13.312;2023-11-21T13:17:39;5.40;99.90
33699;DHT22;20032;52.436;13.312;2023-11-21T13:20:06;5.40;99.90
33699;DHT22;20032;52.436;13.312;2023-11-21T13:22:34;5.50;99.90
33699;DHT22;20032;52.436;13.312;2023-11-21T13:25:01;5.50;99.90
33699;DHT22;20032;52.436;13.312;2023-11-21T13:27:32;5.60;99.90
33699;DHT22;20032;52.436;13.312;2023-11-21T13:29:59;5.50;99.90
33699;DHT22;20032;52.436;13.312;2023-11-21T13:32:25;5.50;99.90
33699;DHT22;20032;52.436;13.312;2023-11-21T13:34:51;5.40;99.90
33699;DHT22;20032;52.436;13.312;2023-11-21T13:37:19;5.40;99.90
33699;DHT22;20032;52.436;13.312;2023-11-21T13:39:45;5.40;99.90
33699;DHT22;20032;52.436;13.312;2023-11-21T13:42:15;5.30;99.90
33699;DHT22;20032;52.436;13.312;2023-11-21T13:44:42;5.30;99.90
33699;DHT22;20032;52.436;13.312;2023-11-21T13:47:12;5.20;99.90
33699;DHT22;20032;52.436;13.312;2023-11-21T13:49:37;5.20;99.90
33699;DHT22;20032;52.436;13.312;2023-11-21T13:52:06;5.10;99.90
33699;DHT22;20032;52.436;13.312;2023-11-21T13:54:32;5.00;99.90
33699;DHT22;20032;52.436;13.312;2023-11-21T13:56:58;5.00;99.90
33699;DHT22;20032;52.436;13.312;2023-11-21T13:59:25;5.10;99.90
33699;DHT22;20032;52.436;13.312;2023-11-21T14:01:53;5.00;99.90
33699;DHT22;20032;52.436;13.312;2023-11-21T14:04:20;5.10;99.90
33699;DHT22;20032;52.436;13.312;2023-11-21T14:07:00;5.00;99.90
33699;DHT22;20032;52.436;13.312;2023-11-21T14:09:36;5.10;99.90
33699;DHT22;20032;52.436;13.312;2023-11-21T14:12:09;5.00;99.90
33699;DHT22;20032;52.436;13.312;2023-11-21T14:14:37;5.00;99.90
33699;DHT22;20032;52.436;13.312;2023-11-21T14:17:04;4.80;99.90
33699;DHT22;20032;52.436;13.312;2023-11-21T14:19:32;4.90;99.90
33699;DHT22;20032;52.436;13.312;2023-11-21T14:21:59;5.00;99.90
33699;DHT22;20032;52.436;13.312;2023-11-21T14:24:25;4.90;99.90
33699;DHT22;20032;52.436;13.312;2023-11-21T14:26:50;4.90;99.90
33699;DHT22;20032;52.436;13.312;2023-11-21T14:29:17;4.90;99.90
33699;DHT22;20032;52.436;13.312;2023-11-21T14:31:46;4.90;99.90
33699;DHT22;20032;52.436;13.312;2023-11-21T14:34:11;4.70;99.90
33699;DHT22;20032;52.436;13.312;2023-11-21T14:36:39;4.60;99.90
33699;DHT22;20032;52.436;13.312;2023-11-21T14:39:05;4.50;99.90
33699;DHT22;20032;52.436;13.312;2023-11-21T14:41:34;4.50;99.90
33699;DHT22;20032;52.436;13.312;2023-11-21T14:44:01;4.50;99.90
33699;DHT22;20032;52.436;13.312;2023-11-21T14:46:28;4.50;99.90
33699;DHT22;20032;52.436;13.312;2023-11-21T14:48:54;4.50;99.90
33699;DHT22;20032;52.436;13.312;2023-11-21T14:51:26;4.50;99.90
33699;DHT22;20032;52.436;13.312;2023-11-21T14:54:11;4.50;99.90
33699;DHT22;20032;52.436;13.312;2023-11-21T14:56:37;4.70;99.90
33699;DHT22;20032;52.436;13.312;2023-11-21T14:59:04;4.60;99.90
33699;DHT22;20032;52.436;13.312;2023-11-21T15:01:41;4.70;99.90
33699;DHT22;20032;52.436;13.312;2023-11-21T15:04:06;4.70;99.90
33699;DHT22;20032;52.436;13.312;2023-11-21T15:06:32;4.50;99.90
33699;DHT22;20032;52.436;13.312;2023-11-21T15:08:58;4.60;99.90
33699;DHT22;20032;52.436;13.312;2023-11-21T15:11:40;4.60;99.90
33699;DHT22;20032;52.436;13.312;2023-11-21T15:14:07;4.50;99.90
33699;DHT22;20032;52.436;13.312;2023-11-21T15:16:35;4.60;99.90
33699;DHT22;20032;52.436;13.312;2023-11-21T15:19:12;4.60;99.90
33699;DHT22;20032;52.436;13.312;2023-11-21T15:21:43;4.50;99.90
33699;DHT22;20032;52.436;13.312;2023-11-21T15:24:09;4.50;99.90
33699;DHT22;20032;52.436;13.312;2023-11-21T15:26:36;4.30;99.90
33699;DHT22;20032;52.436;13.312;2023-11-21T15:29:01;4.30;99.90
33699;DHT22;20032;52.436;13.312;2023-11-21T15:31:27;4.30;99.90
33699;DHT22;20032;52.436;13.312;2023-11-21T15:33:52;4.20;99.90
33699;DHT22;20032;52.436;13.312;2023-11-21T15:36:20;4.20;99.90
33699;DHT22;20032;52.436;13.312;2023-11-21T15:38:46;4.30;99.90